createdAt,value
2022-08-05T00:02:59.503Z,93
2022-08-05T00:08:01.779Z,93
2022-08-05T00:13:00.081Z,93
2022-08-05T00:18:02.710Z,93
2022-08-05T00:23:13.336Z,92
2022-08-05T00:28:00.454Z,92
2022-08-05T00:32:59.539Z,92
2022-08-05T00:38:03.036Z,92
2022-08-05T00:43:00.182Z,91
2022-08-05T00:48:06.415Z,91
2022-08-05T00:53:00.211Z,91
2022-08-05T00:58:00.272Z,91
2022-08-05T01:03:00.176Z,90
2022-08-05T01:08:44.206Z,90
2022-08-05T01:13:19.373Z,89
2022-08-05T01:17:59.671Z,89
2022-08-05T01:23:22.686Z,88
2022-08-05T01:28:00.612Z,88
2022-08-05T01:33:00.073Z,87
2022-08-05T01:38:00.276Z,87
2022-08-05T01:43:00.379Z,86
2022-08-05T01:47:59.569Z,86
2022-08-05T01:52:59.672Z,86
2022-08-05T01:58:15.740Z,86
2022-08-05T02:03:03.907Z,86
2022-08-05T02:08:02.141Z,86
2022-08-05T02:13:01.473Z,86
2022-08-05T02:18:34.790Z,86
2022-08-05T02:22:59.919Z,86
2022-08-05T02:28:00.801Z,86
2022-08-05T02:33:00.698Z,87
2022-08-05T02:38:02.713Z,87
2022-08-05T02:42:59.990Z,87
2022-08-05T02:48:13.046Z,87
2022-08-05T02:53:00.689Z,87
2022-08-05T02:58:20.088Z,87
2022-08-05T03:03:00.862Z,89
2022-08-05T03:08:09.478Z,89
2022-08-05T03:18:00.254Z,90
2022-08-05T03:23:01.214Z,91
2022-08-05T03:28:00.833Z,91
2022-08-05T03:33:01.027Z,92
2022-08-05T03:38:00.025Z,92
2022-08-05T03:44:10.998Z,91
2022-08-05T03:48:00.164Z,91
2022-08-05T03:56:17.071Z,92
2022-08-05T03:58:00.031Z,92
2022-08-05T04:03:00.517Z,92
2022-08-05T04:08:00.270Z,92
2022-08-05T04:12:59.812Z,92
2022-08-05T04:18:00.865Z,92
2022-08-05T04:23:01.234Z,92
2022-08-05T04:28:12.912Z,92
2022-08-05T04:33:01.620Z,92
2022-08-05T04:38:07.035Z,92
2022-08-05T04:43:00.425Z,92
2022-08-05T04:48:01.182Z,92
2022-08-05T04:53:01.083Z,92
2022-08-05T04:58:00.265Z,92
2022-08-05T05:03:04.573Z,92
2022-08-05T05:08:02.597Z,92
2022-08-05T05:13:03.974Z,92
2022-08-05T05:18:00.143Z,92
2022-08-05T05:23:19.774Z,92
2022-08-05T05:28:00.296Z,92
2022-08-05T05:33:03.477Z,92
2022-08-05T05:38:02.534Z,92
2022-08-05T05:43:02.310Z,91
2022-08-05T05:48:08.880Z,91
2022-08-05T05:53:00.293Z,91
2022-08-05T05:58:04.532Z,91
2022-08-05T06:03:01.165Z,90
2022-08-05T06:08:03.887Z,90
2022-08-05T06:13:00.240Z,90
2022-08-05T06:18:00.493Z,90
2022-08-05T06:23:04.246Z,90
2022-08-05T06:28:21.198Z,90
2022-08-05T06:33:00.074Z,90
2022-08-05T06:38:12.017Z,90
2022-08-05T06:43:00.504Z,89
2022-08-05T06:48:59.260Z,89
2022-08-05T06:53:11.930Z,88
2022-08-05T06:58:35.504Z,88
2022-08-05T07:03:00.899Z,88
2022-08-05T07:08:02.549Z,88
2022-08-05T07:13:00.624Z,88
2022-08-05T07:18:11.583Z,88
2022-08-05T07:22:59.985Z,85
2022-08-05T07:28:11.676Z,85
2022-08-05T07:33:00.402Z,86
2022-08-05T07:38:00.949Z,86
2022-08-05T07:43:14.445Z,86
2022-08-05T07:47:59.975Z,86
2022-08-05T07:53:00.251Z,86
2022-08-05T07:58:04.137Z,86
2022-08-05T08:03:16.095Z,87
2022-08-05T08:08:00.901Z,87
2022-08-05T08:13:01.809Z,87
2022-08-05T08:18:04.265Z,87
2022-08-05T08:23:03.450Z,87
2022-08-05T08:27:59.936Z,87
2022-08-05T08:33:08.288Z,88
2022-08-05T08:38:01.161Z,88
2022-08-05T08:45:26.970Z,88
2022-08-05T08:48:43.707Z,88
2022-08-05T08:53:01.222Z,88
2022-08-05T08:58:00.557Z,88
2022-08-05T09:03:00.337Z,88
2022-08-05T09:08:00.591Z,88
2022-08-05T09:13:05.480Z,88
2022-08-05T09:18:00.485Z,88
2022-08-05T09:23:07.755Z,88
2022-08-05T09:28:06.605Z,88
2022-08-05T09:32:59.857Z,88
2022-08-05T09:38:27.571Z,88
2022-08-05T09:43:01.086Z,88
2022-08-05T09:48:01.050Z,88
2022-08-05T09:53:01.231Z,88
2022-08-05T09:58:01.098Z,88
2022-08-05T10:03:00.112Z,88
2022-08-05T10:08:38.348Z,88
2022-08-05T10:13:00.641Z,88
2022-08-05T10:18:01.699Z,88
2022-08-05T10:23:00.828Z,89
2022-08-05T10:28:19.621Z,89
2022-08-05T10:33:03.156Z,89
2022-08-05T10:38:02.021Z,89
2022-08-05T10:43:00.329Z,90
2022-08-05T10:48:39.543Z,90
2022-08-05T10:53:00.491Z,90
2022-08-05T10:58:01.206Z,90
2022-08-05T11:03:27.148Z,90
2022-08-05T11:08:27.505Z,90
2022-08-05T11:13:01.492Z,90
2022-08-05T11:18:12.056Z,90
2022-08-05T11:23:10.605Z,91
2022-08-05T11:28:01.069Z,91
2022-08-05T11:33:04.773Z,91
2022-08-05T11:38:37.231Z,91
2022-08-05T11:43:03.035Z,91
2022-08-05T11:48:00.787Z,91
2022-08-05T11:53:01.321Z,91
2022-08-05T11:58:12.167Z,91
2022-08-05T12:03:00.589Z,92
2022-08-05T12:08:11.726Z,92
2022-08-05T12:13:00.631Z,92
2022-08-05T12:18:10.019Z,92
2022-08-05T12:23:00.562Z,91
2022-08-05T12:28:02.588Z,91
2022-08-05T12:33:36.012Z,90
2022-08-05T12:38:03.112Z,90
2022-08-05T12:43:00.893Z,88
2022-08-05T12:48:33.104Z,88
2022-08-05T12:53:00.535Z,87
2022-08-05T12:59:00.962Z,87
2022-08-05T13:03:00.908Z,87
2022-08-05T13:08:01.775Z,87
2022-08-05T13:13:02.843Z,85
2022-08-05T13:18:01.092Z,85
2022-08-05T13:23:00.494Z,84
2022-08-05T13:28:00.798Z,84
2022-08-05T13:33:02.342Z,82
2022-08-05T13:38:06.078Z,82
2022-08-05T13:43:00.506Z,82
2022-08-05T13:49:00.320Z,82
2022-08-05T13:53:00.783Z,81
2022-08-05T13:58:00.284Z,81
2022-08-05T14:03:01.597Z,82
2022-08-05T14:08:27.707Z,82
2022-08-05T14:13:02.320Z,81
2022-08-05T14:18:01.032Z,81
2022-08-05T14:23:02.680Z,81
2022-08-05T14:28:00.965Z,81
2022-08-05T14:33:00.334Z,82
2022-08-05T14:38:01.305Z,82
2022-08-05T14:43:00.718Z,82
2022-08-05T14:48:08.995Z,82
2022-08-05T14:53:01.852Z,81
2022-08-05T14:58:00.491Z,81
2022-08-05T15:02:59.948Z,80
2022-08-05T15:08:18.060Z,80
2022-08-05T15:13:05.020Z,80
2022-08-05T15:18:06.042Z,80
2022-08-05T15:23:02.170Z,78
2022-08-05T15:28:00.030Z,78
2022-08-05T15:33:01.398Z,82
2022-08-05T15:38:42.066Z,82
2022-08-05T15:43:20.195Z,88
2022-08-05T15:48:01.252Z,88
2022-08-05T15:53:06.432Z,90
2022-08-05T15:58:02.607Z,90
2022-08-05T16:03:00.747Z,89
2022-08-05T16:08:00.378Z,89
2022-08-05T16:13:00.591Z,86
2022-08-05T16:18:04.506Z,86
2022-08-05T16:23:01.205Z,85
2022-08-05T16:28:09.472Z,85
2022-08-05T16:33:00.609Z,83
2022-08-05T16:38:28.236Z,83
2022-08-05T16:43:03.342Z,79
2022-08-05T16:48:03.274Z,79
2022-08-05T16:53:22.451Z,79
2022-08-05T16:58:03.593Z,79
2022-08-05T17:03:00.905Z,78
2022-08-05T17:08:00.302Z,78
2022-08-05T17:13:00.627Z,82
2022-08-05T17:18:00.768Z,82
2022-08-05T17:23:00.391Z,81
2022-08-05T17:28:00.642Z,81
2022-08-05T17:33:00.806Z,80
2022-08-05T17:38:05.230Z,80
2022-08-05T17:43:00.427Z,79
2022-08-05T17:48:00.635Z,79
2022-08-05T17:53:01.013Z,79
2022-08-05T17:58:00.991Z,79
2022-08-05T18:03:00.424Z,77
2022-08-05T18:08:00.709Z,77
2022-08-05T18:13:12.363Z,76
2022-08-05T18:18:11.532Z,76
2022-08-05T18:23:12.512Z,75
2022-08-05T18:28:05.499Z,75
2022-08-05T18:33:01.610Z,77
2022-08-05T18:38:00.707Z,77
2022-08-05T18:43:00.733Z,78
2022-08-05T18:48:02.206Z,78
2022-08-05T18:53:00.563Z,77
2022-08-05T18:58:03.659Z,77
2022-08-05T19:03:04.900Z,77
2022-08-05T19:08:01.055Z,77
2022-08-05T19:13:02.697Z,78
2022-08-05T19:18:22.293Z,78
2022-08-05T19:23:01.079Z,79
2022-08-05T19:28:00.806Z,79
2022-08-05T19:33:06.329Z,80
2022-08-05T19:38:09.386Z,80
2022-08-05T19:43:07.433Z,80
2022-08-05T19:48:00.614Z,80
2022-08-05T19:53:10.998Z,81
2022-08-05T19:58:30.081Z,81
2022-08-05T20:03:09.085Z,82
2022-08-05T20:08:01.103Z,82
2022-08-05T20:13:00.436Z,84
2022-08-05T20:18:00.924Z,84
2022-08-05T20:23:01.396Z,85
2022-08-05T20:28:01.570Z,85
2022-08-05T20:33:00.511Z,86
2022-08-05T20:38:08.516Z,86
2022-08-05T20:43:00.726Z,87
2022-08-05T20:48:00.284Z,87
2022-08-05T20:53:02.213Z,88
2022-08-05T20:58:01.089Z,88
2022-08-05T21:03:01.752Z,88
2022-08-05T21:08:00.860Z,88
2022-08-05T21:13:26.178Z,88
2022-08-05T21:18:00.517Z,88
2022-08-05T21:23:00.699Z,88
2022-08-05T21:28:00.423Z,88
2022-08-05T21:33:02.080Z,88
2022-08-05T21:38:00.521Z,88
2022-08-05T21:43:05.843Z,89
2022-08-05T21:48:00.868Z,89
2022-08-05T21:53:17.896Z,89
2022-08-05T21:58:03.695Z,89
2022-08-05T22:03:00.357Z,89
2022-08-05T22:08:02.732Z,89
2022-08-05T22:14:35.743Z,88
2022-08-05T22:18:00.719Z,88
2022-08-05T22:23:00.904Z,87
2022-08-05T22:28:12.048Z,87
2022-08-05T22:33:00.403Z,88
2022-08-05T22:38:00.716Z,88
2022-08-05T22:43:00.262Z,88
2022-08-05T22:48:01.063Z,88
2022-08-05T22:53:01.155Z,87
2022-08-05T22:58:02.183Z,87
2022-08-05T23:03:04.571Z,88
2022-08-05T23:08:00.578Z,88
2022-08-05T23:13:02.395Z,89
2022-08-05T23:18:05.854Z,89
2022-08-05T23:23:08.319Z,89
2022-08-05T23:28:01.210Z,89
2022-08-05T23:33:00.492Z,89
2022-08-05T23:38:00.898Z,89
2022-08-05T23:43:25.173Z,90
2022-08-05T23:48:04.664Z,90
2022-08-05T23:53:03.418Z,90
2022-08-05T23:58:02.227Z,90
